Latest Weather Observations for Hartz Mountains

IDT60801

Issued at 2:01 pm EDT Tuesday 31 March 2015 (issued every 30 minutes, with the page automatically refreshed every 10 minutes)

About weather observations | Map of weather stations | Latest weather observations for TAS | Other Formats
Station Details ID: 094191 Name: HARTZ MOUNTAIN (KEOGHS PIMPLE) Lat: -43.20 Lon: 146.77 Height: 831.0 m
Data from the previous 72 hours. | See also: Recent months at Hartz Mountains
Date/Time
EDT
Temp
°C
App
Temp
°C
Dew
Point
Rel
Hum
%
Delta-T
°C
Wind Press
QNH
hPa
Press
MSL
hPa
Rain
since 9 am
mm
Dir
 
Spd
km/h
Gust
km/h
Spd
kts
Gust
kts
31/02:00pm 13.8 8.1 9.8 77 2.2 W 30 41 16 22 - - 0.0
31/01:30pm 14.5 9.7 10.3 76 2.3 W 26 41 14 22 - - 0.0
31/01:00pm 13.5 7.4 9.6 77 2.1 WSW 32 43 17 23 - - 0.0
31/12:30pm 12.6 5.8 9.4 81 1.7 W 35 43 19 23 - - 0.0
31/12:00pm 11.9 5.0 8.9 82 1.6 WSW 35 48 19 26 - - 0.0
31/11:30am 11.3 4.0 8.7 84 1.3 W 37 46 20 25 - - 0.0
31/11:00am 10.7 4.7 8.5 86 1.1 W 30 37 16 20 - - 0.0
31/10:30am 9.8 4.0 7.9 88 1.0 W 28 37 15 20 - - 0.0
31/10:00am 9.2 2.6 7.6 90 0.8 W 32 41 17 22 - - 0.0
31/09:30am 8.5 1.2 7.4 93 0.5 W 35 46 19 25 - - 0.0
31/09:00am 7.7 -0.1 6.8 94 0.4 W 37 46 20 25 - - 0.0
31/08:30am 7.3 -1.6 6.7 96 0.3 W 43 50 23 27 - - 0.0
31/08:00am 7.1 -1.8 6.7 97 0.2 WSW 43 52 23 28 - - 0.0
31/07:30am 6.8 -1.8 6.5 98 0.1 WSW 41 50 22 27 - - 0.0
31/07:00am 6.8 -0.1 6.5 98 0.1 W 32 43 17 23 - - 0.0
31/06:30am 7.0 1.7 6.7 98 0.1 W 24 32 13 17 - - 0.0
31/06:00am 7.0 0.2 6.7 98 0.1 W 32 46 17 25 - - 0.0
31/05:30am 7.1 1.0 6.8 98 0.1 W 28 41 15 22 - - 0.0
31/05:00am 7.1 0.3 6.8 98 0.1 W 32 44 17 24 - - 0.0
31/04:42am 7.1 0.3 6.7 97 0.2 W 32 50 17 27 - - 0.0
31/04:30am 7.1 -0.3 6.7 97 0.2 W 35 48 19 26 - - 0.0
31/04:00am 6.9 0.0 6.5 97 0.2 W 32 43 17 23 - - 0.0
31/03:30am 6.9 -2.3 6.3 96 0.3 W 44 54 24 29 - - 0.0
31/03:00am 7.0 -1.6 6.3 95 0.3 W 41 54 22 29 - - 0.0
31/02:30am 6.9 -3.1 6.3 96 0.3 W 48 57 26 31 - - 0.0
31/02:00am 7.0 -2.6 6.4 96 0.3 W 46 59 25 32 - - 0.0
31/01:30am 7.1 -4.0 6.5 96 0.3 W 54 65 29 35 - - 0.0
31/01:00am 7.1 -4.0 6.4 95 0.3 W 54 65 29 35 - - 0.0
31/12:30am 7.0 -2.6 6.3 95 0.3 W 46 57 25 31 - - 0.0
31/12:00am 7.0 -2.3 6.1 94 0.4 W 44 57 24 31 - - 0.0
 
Date/Time
EDT
Temp
°C
App
Temp
°C
Dew
Point
Rel
Hum
%
Delta-T
°C
Wind Press
QNH
hPa
Press
MSL
hPa
Rain
since 9 am
mm
Dir
 
Spd
km/h
Gust
km/h
Spd
kts
Gust
kts
30/11:52pm 7.0 -1.3 6.3 95 0.3 W 39 57 21 31 - - 0.0
30/11:30pm 7.2 -0.3 6.5 95 0.3 W 35 48 19 26 - - 0.0
30/11:00pm 7.4 0.9 6.5 94 0.4 W 30 37 16 20 - - 0.0
30/10:30pm 7.4 0.3 6.5 94 0.4 WNW 33 44 18 24 - - 0.0
30/10:00pm 7.4 0.5 6.5 94 0.4 W 32 44 17 24 - - 0.0
30/09:30pm 7.6 -1.3 6.9 95 0.3 W 43 54 23 29 - - 0.0
30/09:00pm 7.7 -0.8 7.0 95 0.3 W 41 54 22 29 - - 0.0
30/08:36pm 7.8 -0.4 6.7 93 0.5 W 39 57 21 31 - - 0.0
30/08:30pm 7.8 -0.4 6.7 93 0.5 W 39 52 21 28 - - 0.0
30/08:00pm 7.9 -1.0 6.7 92 0.6 W 43 63 23 34 - - 0.0
30/07:47pm 8.2 -1.2 7.0 92 0.6 W 46 65 25 35 - - 0.0
30/07:30pm 8.2 -0.8 7.1 93 0.5 W 44 61 24 33 - - 0.0
30/07:03pm 8.5 -0.3 7.3 92 0.6 W 43 61 23 33 - - 0.0
30/07:00pm 8.6 0.2 7.4 92 0.6 WNW 41 54 22 29 - - 0.0
30/06:31pm 8.8 -0.1 6.9 88 0.9 W 43 61 23 33 - - 0.0
30/06:30pm 8.8 -0.3 6.9 88 0.9 W 44 61 24 33 - - 0.0
30/06:03pm 8.8 -1.1 6.4 85 1.2 WNW 48 67 26 36 - - 0.0
30/06:00pm 8.9 -0.6 6.7 86 1.1 WNW 46 63 25 34 - - 0.0
30/05:30pm 9.1 -1.2 6.7 85 1.2 W 50 69 27 37 - - 0.0
30/05:00pm 9.6 -0.2 7.0 84 1.3 W 48 69 26 37 - - 0.0
30/04:32pm 10.7 0.2 7.2 79 1.8 W 52 70 28 38 - - 0.0
30/04:30pm 10.5 0.0 7.2 80 1.6 W 52 65 28 35 - - 0.0
30/04:04pm 10.8 -0.3 8.0 83 1.4 W 56 74 30 40 - - 0.0
30/04:00pm 10.7 -0.7 7.6 81 1.6 W 57 78 31 42 - - 0.0
30/03:56pm 10.5 -1.0 7.2 80 1.6 W 57 78 31 42 - - 0.0
30/03:32pm 11.2 2.7 8.6 84 1.3 W 43 67 23 36 - - 0.0
30/03:30pm 10.8 2.6 8.0 83 1.4 W 41 56 22 30 - - 0.0
30/03:00pm 10.3 1.7 8.1 86 1.1 W 43 63 23 34 - - 0.0
30/02:30pm 10.7 3.3 8.5 86 1.1 W 37 56 20 30 - - 0.0
30/02:00pm 11.0 3.4 8.9 87 1.1 W 39 78 21 42 - - 0.0
30/01:30pm 12.0 5.1 9.0 82 1.6 WNW 35 67 19 36 - - 0.0
30/01:00pm 11.5 3.0 8.4 81 1.6 WNW 43 67 23 36 - - 0.0
30/12:30pm 11.6 2.9 8.6 82 1.6 WNW 44 76 24 41 - - 0.0
30/12:29pm 11.7 3.1 8.7 82 1.6 WNW 44 76 24 41 - - 0.0
30/12:00pm 10.7 -0.9 8.1 84 1.3 W 59 83 32 45 - - 0.0
30/11:30am 10.0 0.5 8.4 90 0.8 WNW 48 72 26 39 - - 0.0
30/11:00am 9.4 1.2 8.3 93 0.6 W 41 65 22 35 - - 0.0
30/10:30am 9.1 0.3 8.0 93 0.6 W 44 63 24 34 - - 0.0
30/10:01am 9.0 1.1 7.9 93 0.6 W 39 57 21 31 - - 0.0
30/10:00am 8.9 1.0 7.8 93 0.6 W 39 56 21 30 - - 0.0
30/09:32am 8.4 0.0 7.3 93 0.5 W 41 59 22 32 - - 0.0
30/09:30am 8.4 -0.4 7.3 93 0.5 W 43 59 23 32 - - 0.0
30/09:00am 7.7 -2.9 7.0 95 0.3 W 52 72 28 39 - - 2.0
30/08:30am 7.6 -1.9 6.5 93 0.5 W 46 72 25 39 - - 2.0
30/08:00am 7.1 -3.6 6.4 95 0.3 W 52 82 28 44 - - 2.0
30/07:30am 7.2 -4.7 6.8 97 0.2 W 59 89 32 48 - - 2.0
30/07:00am 7.2 -4.9 6.1 93 0.5 W 59 89 32 48 - - 2.0
30/06:36am 7.0 -5.6 5.6 91 0.7 W 61 98 33 53 - - 2.0
30/06:30am 6.9 -4.8 5.5 91 0.7 W 56 80 30 43 - - 2.0
30/06:00am 6.9 -3.7 5.1 88 0.8 W 50 85 27 46 - - 2.0
30/05:30am 7.1 -5.5 5.7 91 0.7 W 61 83 33 45 - - 2.0
30/05:25am 7.1 -4.7 5.9 92 0.6 W 57 89 31 48 - - 2.0
30/05:24am 7.2 -4.9 6.1 93 0.5 W 59 89 32 48 - - 2.0
30/05:00am 7.3 -2.3 6.1 92 0.6 W 46 80 25 43 - - 2.0
30/04:30am 7.4 -2.2 6.3 93 0.5 W 46 67 25 36 - - 2.0
30/04:00am 7.2 -1.9 5.8 91 0.7 W 43 69 23 37 - - 2.0
30/03:30am 7.1 -1.7 5.6 90 0.7 W 41 59 22 32 - - 2.0
30/03:03am 7.1 -2.1 5.3 88 0.8 W 43 65 23 35 - - 2.0
30/03:00am 7.2 -2.0 5.3 88 0.9 W 43 59 23 32 - - 2.0
30/02:30am 6.8 -2.7 5.0 88 0.8 W 44 69 24 37 - - 2.0
30/02:00am 6.9 -4.1 5.1 88 0.8 W 52 74 28 40 - - 2.0
30/01:30am 6.7 -4.3 4.9 88 0.8 W 52 74 28 40 - - 2.0
30/01:10am 6.7 -5.3 4.7 87 0.9 W 57 80 31 43 - - 2.0
30/01:00am 6.9 -4.5 5.1 88 0.8 W 54 70 29 38 - - 2.0
30/12:36am 6.6 -3.2 5.2 91 0.6 W 46 70 25 38 - - 2.0
30/12:30am 6.6 -3.2 5.2 91 0.6 W 46 59 25 32 - - 2.0
30/12:04am 6.7 -1.5 4.9 88 0.8 W 37 56 20 30 - - 2.0
30/12:00am 6.8 -1.7 5.1 89 0.8 W 39 52 21 28 - - 2.0
 
Date/Time
EDT
Temp
°C
App
Temp
°C
Dew
Point
Rel
Hum
%
Delta-T
°C
Wind Press
QNH
hPa
Press
MSL
hPa
Rain
since 9 am
mm
Dir
 
Spd
km/h
Gust
km/h
Spd
kts
Gust
kts
29/11:30pm 6.8 -1.7 5.0 88 0.8 W 39 61 21 33 - - 2.0
29/11:00pm 6.7 -0.5 5.2 90 0.7 W 32 50 17 27 - - 2.0
29/10:56pm 6.6 -0.6 5.1 90 0.7 W 32 50 17 27 - - 2.0
29/10:30pm 6.3 -0.5 4.9 91 0.6 W 30 43 16 23 - - 2.0
29/10:00pm 6.5 -2.8 5.1 91 0.6 W 43 61 23 33 - - 2.0
29/09:30pm 6.4 -3.5 5.0 91 0.6 W 46 67 25 36 - - 2.0
29/09:06pm 6.5 -2.9 5.3 92 0.6 W 44 63 24 34 - - 2.0
29/09:00pm 6.6 -3.6 5.4 92 0.6 W 48 63 26 34 - - 2.0
29/08:40pm 6.6 -2.6 5.4 92 0.6 WNW 43 61 23 33 - - 2.0
29/08:30pm 6.6 -2.8 5.4 92 0.6 W 44 61 24 33 - - 2.0
29/08:04pm 6.8 -2.4 5.6 92 0.6 W 43 65 23 35 - - 2.0
29/08:00pm 6.8 -2.0 5.7 93 0.5 W 41 57 22 31 - - 2.0
29/07:40pm 6.9 -2.2 5.8 93 0.5 W 43 69 23 37 - - 2.0
29/07:30pm 6.9 -2.4 6.0 94 0.4 W 44 59 24 32 - - 2.0
29/07:00pm 6.9 -2.2 6.0 94 0.4 WNW 43 69 23 37 - - 2.0
29/06:30pm 7.0 -2.3 6.1 94 0.4 WNW 44 70 24 38 - - 2.0
29/06:28pm 7.0 -2.3 6.1 94 0.4 WNW 44 70 24 38 - - 2.0
29/06:10pm 7.1 1.0 6.4 95 0.3 W 28 48 15 26 - - 2.0
29/06:00pm 7.2 0.3 6.5 95 0.3 W 32 46 17 25 - - 2.0
29/05:30pm 7.3 -0.9 6.4 94 0.4 W 39 57 21 31 - - 2.0
29/05:00pm 7.4 -2.1 6.5 94 0.4 W 46 69 25 37 - - 2.0
29/04:36pm 7.6 -0.9 6.9 95 0.3 W 41 61 22 33 - - 2.0
29/04:30pm 7.7 -0.4 7.1 96 0.3 W 39 54 21 29 - - 2.0
29/04:03pm 7.6 -0.1 7.2 97 0.2 W 37 56 20 30 - - 1.8
29/04:00pm 7.8 -0.2 7.4 97 0.2 W 39 54 21 29 - - 1.8
29/03:37pm 7.9 2.0 7.5 97 0.2 WNW 28 48 15 26 - - 1.8
29/03:30pm 8.0 2.9 7.6 97 0.2 WNW 24 43 13 23 - - 1.8
29/03:00pm 8.4 2.6 8.0 97 0.2 WSW 28 41 15 22 - - 1.6
29/02:30pm 8.8 4.6 8.4 97 0.2 W 20 37 11 20 - - 1.6
29/02:00pm 9.4 5.4 8.9 97 0.3 W 20 39 11 21 - - 1.6
29/01:30pm 9.3 5.2 8.8 97 0.3 W 20 35 11 19 - - 1.4
29/01:00pm 9.1 4.2 8.6 97 0.3 W 24 39 13 21 - - 1.4
29/12:30pm 8.6 2.1 8.3 98 0.2 W 32 52 17 28 - - 1.0
29/12:19pm 8.6 2.1 8.3 98 0.2 WSW 32 50 17 27 - - 1.0
29/12:00pm 8.6 3.7 8.3 98 0.2 WSW 24 39 13 21 - - 0.8
29/11:45am 8.6 3.3 8.3 98 0.2 W 26 50 14 27 - - 0.6
29/11:30am 8.6 0.4 8.3 98 0.2 WNW 41 61 22 33 - - 0.0
29/11:00am 8.2 -1.0 7.9 98 0.1 WNW 46 69 25 37 - - 0.0
29/10:30am 8.0 -1.3 7.7 98 0.1 WNW 46 67 25 36 - - 0.0
29/10:00am 7.7 -2.0 7.4 98 0.1 WNW 48 85 26 46 - - 0.0
29/09:30am 7.7 -1.3 7.3 97 0.2 WNW 44 72 24 39 - - 0.0
29/09:00am 7.6 -0.5 7.0 96 0.3 WNW 39 69 21 37 - - 0.4
29/08:52am 7.6 -0.5 7.0 96 0.3 WNW 39 69 21 37 - - 0.4
29/08:51am 7.6 -0.5 7.0 96 0.3 WNW 39 69 21 37 - - 0.4
29/08:30am 7.3 1.2 6.7 96 0.3 WNW 28 50 15 27 - - 0.4
29/08:29am 7.3 1.2 6.7 96 0.3 WNW 28 50 15 27 - - 0.4
29/08:00am 7.1 0.2 6.4 95 0.3 WNW 32 44 17 24 - - 0.4
29/07:33am 6.8 0.6 6.1 95 0.3 NW 28 48 15 26 - - 0.4
29/07:30am 6.8 1.3 6.1 95 0.3 NW 24 39 13 21 - - 0.4
29/07:00am 6.7 -0.3 6.1 96 0.3 WNW 32 57 17 31 - - 0.4
29/06:42am 6.6 0.4 6.0 96 0.3 WNW 28 46 15 25 - - 0.4
29/06:30am 6.5 2.0 5.9 96 0.3 WNW 19 32 10 17 - - 0.4
29/06:11am 6.5 0.2 5.9 96 0.3 WNW 28 50 15 27 - - 0.4
29/06:00am 6.4 1.3 5.8 96 0.3 WNW 22 35 12 19 - - 0.4
29/05:33am 6.4 -1.2 5.7 95 0.3 WNW 35 54 19 29 - - 0.4
29/05:30am 6.3 -1.7 5.6 95 0.3 W 37 54 20 29 - - 0.4
29/05:08am 6.3 -2.1 5.6 95 0.3 W 39 59 21 32 - - 0.4
29/05:00am 6.3 -2.1 5.4 94 0.4 WNW 39 54 21 29 - - 0.4
29/04:36am 6.6 -4.4 5.2 91 0.6 WNW 52 70 28 38 - - 0.4
29/04:30am 6.7 -4.6 5.3 91 0.7 WNW 54 70 29 38 - - 0.4
29/04:00am 6.2 -2.7 5.3 94 0.4 WNW 41 65 22 35 - - 0.4
29/03:30am 6.2 -4.4 5.2 93 0.5 WNW 50 69 27 37 - - 0.4
29/03:00am 6.3 -4.7 5.1 92 0.6 WNW 52 72 28 39 - - 0.4
29/02:30am 6.1 -3.8 4.9 92 0.5 WNW 46 67 25 36 - - 0.4
29/02:00am 5.9 -4.4 4.7 92 0.5 WNW 48 69 26 37 - - 0.4
29/01:58am 5.9 -4.4 4.5 91 0.6 WNW 48 69 26 37 - - 0.4
29/01:56am 6.0 -4.3 4.6 91 0.6 WNW 48 69 26 37 - - 0.4
29/01:35am 5.7 -2.1 4.8 94 0.4 WNW 35 54 19 29 - - 0.4
29/01:30am 5.8 -2.4 4.9 94 0.4 WNW 37 52 20 28 - - 0.4
29/01:07am 5.8 -2.4 4.8 93 0.5 W 37 56 20 30 - - 0.4
29/01:00am 5.7 -3.6 4.8 94 0.4 WNW 43 59 23 32 - - 0.4
29/12:30am 5.8 -3.1 4.9 94 0.4 WNW 41 59 22 32 - - 0.4
29/12:00am 5.7 -2.8 5.1 96 0.3 W 39 59 21 32 - - 0.4
 
Date/Time
EDT
Temp
°C
App
Temp
°C
Dew
Point
Rel
Hum
%
Delta-T
°C
Wind Press
QNH
hPa
Press
MSL
hPa
Rain
since 9 am
mm
Dir
 
Spd
km/h
Gust
km/h
Spd
kts
Gust
kts
28/11:59pm 5.7 -2.4 5.1 96 0.3 W 37 57 20 31 - - 0.4
28/11:30pm 5.8 -1.4 5.1 95 0.3 W 32 41 17 22 - - 0.4
28/11:01pm 5.9 -1.9 5.0 94 0.4 WNW 35 54 19 29 - - 0.4
28/11:00pm 5.9 -1.9 5.0 94 0.4 WNW 35 44 19 24 - - 0.4
28/10:30pm 6.0 -2.9 5.0 93 0.5 WNW 41 56 22 30 - - 0.4
28/10:04pm 6.1 -1.1 5.1 93 0.5 WNW 32 50 17 27 - - 0.4
28/10:00pm 6.1 -1.1 5.1 93 0.5 WNW 32 43 17 23 - - 0.4
28/09:30pm 6.1 -1.7 5.1 93 0.5 WNW 35 50 19 27 - - 0.4
28/09:13pm 6.2 -1.2 5.2 93 0.5 WNW 33 52 18 28 - - 0.4
28/09:00pm 6.2 -1.1 5.3 94 0.4 WNW 33 43 18 23 - - 0.4
28/08:30pm 6.1 -0.6 5.4 95 0.3 WNW 30 39 16 21 - - 0.4
28/08:00pm 6.2 -0.1 5.6 96 0.3 WNW 28 37 15 20 - - 0.4
28/07:30pm 6.3 -0.4 5.6 95 0.3 WNW 30 37 16 20 - - 0.4
28/07:00pm 6.6 -0.1 5.7 94 0.4 WNW 30 41 16 22 - - 0.4
28/06:30pm 7.0 1.5 6.1 94 0.4 WNW 24 39 13 21 - - 0.4
28/06:00pm 7.5 2.8 6.1 91 0.7 W 20 32 11 17 - - 0.4
28/05:30pm 7.6 1.3 5.9 89 0.8 WNW 28 41 15 22 - - 0.4
28/05:00pm 8.0 2.6 6.3 89 0.8 W 24 33 13 18 - - 0.4
28/04:30pm 8.4 1.9 6.4 87 1.0 W 30 46 16 25 - - 0.4
28/04:00pm 9.0 2.2 6.8 86 1.1 W 32 46 17 25 - - 0.4
28/03:30pm 9.5 0.8 5.9 78 1.7 W 41 54 22 29 - - 0.4
28/03:11pm 8.6 0.8 6.6 87 1.0 WNW 37 56 20 30 - - 0.4
28/03:00pm 8.8 0.9 6.2 84 1.3 WNW 37 50 20 27 - - 0.4
28/02:38pm 9.0 0.7 6.1 82 1.4 WNW 39 57 21 31 - - 0.4
28/02:30pm 9.4 1.3 7.0 85 1.2 WNW 39 52 21 28 - - 0.4
28/02:02pm 9.1 2.1 6.9 86 1.1 WNW 33 52 18 28 - - 0.4

Other Formats:

Comma delimited format used in spreadsheet applications
http://www.bom.gov.au/fwo/IDT60801/IDT60801.94977.axf

JavaScript Object Notation format (JSON) in row-major order
http://www.bom.gov.au/fwo/IDT60801/IDT60801.94977.json